sensor_id;sensor_type;location;lat;lon;timestamp;P1;durP1;ratioP1;P2;durP2;ratioP2
36585;SDS011;22591;48.314;11.562;2024-03-08T00:01:59;26.67;;;18.80;;
36585;SDS011;22591;48.314;11.562;2024-03-08T00:04:25;26.20;;;19.20;;
36585;SDS011;22591;48.314;11.562;2024-03-08T00:06:51;28.63;;;18.75;;
36585;SDS011;22591;48.314;11.562;2024-03-08T00:09:16;26.63;;;18.38;;
36585;SDS011;22591;48.314;11.562;2024-03-08T00:11:42;26.60;;;19.23;;
36585;SDS011;22591;48.314;11.562;2024-03-08T00:14:07;27.77;;;20.02;;
36585;SDS011;22591;48.314;11.562;2024-03-08T00:16:33;28.15;;;19.05;;
36585;SDS011;22591;48.314;11.562;2024-03-08T00:19:00;28.10;;;19.08;;
36585;SDS011;22591;48.314;11.562;2024-03-08T00:21:26;27.15;;;19.25;;
36585;SDS011;22591;48.314;11.562;2024-03-08T00:23:52;27.30;;;19.35;;
36585;SDS011;22591;48.314;11.562;2024-03-08T00:26:19;27.35;;;19.75;;
36585;SDS011;22591;48.314;11.562;2024-03-08T00:28:47;32.15;;;20.83;;
36585;SDS011;22591;48.314;11.562;2024-03-08T00:31:14;28.17;;;19.20;;
36585;SDS011;22591;48.314;11.562;2024-03-08T00:33:43;29.48;;;18.55;;
36585;SDS011;22591;48.314;11.562;2024-03-08T00:36:08;28.13;;;19.52;;
36585;SDS011;22591;48.314;11.562;2024-03-08T00:38:34;29.38;;;18.92;;
36585;SDS011;22591;48.314;11.562;2024-03-08T00:41:00;28.80;;;21.08;;
36585;SDS011;22591;48.314;11.562;2024-03-08T00:43:25;28.75;;;20.45;;
36585;SDS011;22591;48.314;11.562;2024-03-08T00:45:51;29.35;;;20.38;;
36585;SDS011;22591;48.314;11.562;2024-03-08T00:48:16;30.55;;;20.55;;
36585;SDS011;22591;48.314;11.562;2024-03-08T00:50:42;25.10;;;18.92;;
36585;SDS011;22591;48.314;11.562;2024-03-08T00:53:10;29.95;;;19.58;;
36585;SDS011;22591;48.314;11.562;2024-03-08T00:55:36;28.70;;;20.63;;
36585;SDS011;22591;48.314;11.562;2024-03-08T00:58:03;29.95;;;20.05;;
36585;SDS011;22591;48.314;11.562;2024-03-08T01:00:34;28.52;;;20.70;;
36585;SDS011;22591;48.314;11.562;2024-03-08T01:02:59;34.00;;;21.08;;
36585;SDS011;22591;48.314;11.562;2024-03-08T01:05:25;30.35;;;21.55;;
36585;SDS011;22591;48.314;11.562;2024-03-08T01:07:51;26.52;;;20.05;;
36585;SDS011;22591;48.314;11.562;2024-03-08T01:10:16;29.17;;;21.02;;
36585;SDS011;22591;48.314;11.562;2024-03-08T01:12:42;32.65;;;20.35;;
36585;SDS011;22591;48.314;11.562;2024-03-08T01:15:11;28.13;;;20.02;;
36585;SDS011;22591;48.314;11.562;2024-03-08T01:17:36;29.20;;;20.58;;
36585;SDS011;22591;48.314;11.562;2024-03-08T01:20:03;28.80;;;20.15;;
36585;SDS011;22591;48.314;11.562;2024-03-08T01:22:29;28.15;;;20.55;;
36585;SDS011;22591;48.314;11.562;2024-03-08T01:24:55;29.23;;;20.95;;
36585;SDS011;22591;48.314;11.562;2024-03-08T01:27:21;32.45;;;21.33;;
36585;SDS011;22591;48.314;11.562;2024-03-08T01:29:47;30.15;;;21.25;;
36585;SDS011;22591;48.314;11.562;2024-03-08T01:32:13;30.45;;;19.80;;
36585;SDS011;22591;48.314;11.562;2024-03-08T01:34:39;33.45;;;21.52;;
36585;SDS011;22591;48.314;11.562;2024-03-08T01:37:05;27.83;;;20.60;;
36585;SDS011;22591;48.314;11.562;2024-03-08T01:39:31;29.20;;;19.92;;
36585;SDS011;22591;48.314;11.562;2024-03-08T01:41:57;33.08;;;21.30;;
36585;SDS011;22591;48.314;11.562;2024-03-08T01:44:23;29.30;;;21.10;;
36585;SDS011;22591;48.314;11.562;2024-03-08T01:46:49;29.40;;;20.75;;
36585;SDS011;22591;48.314;11.562;2024-03-08T01:49:17;31.48;;;20.67;;
36585;SDS011;22591;48.314;11.562;2024-03-08T01:51:45;33.13;;;21.88;;
36585;SDS011;22591;48.314;11.562;2024-03-08T01:54:14;31.90;;;22.48;;
36585;SDS011;22591;48.314;11.562;2024-03-08T01:56:41;31.90;;;21.40;;
36585;SDS011;22591;48.314;11.562;2024-03-08T01:59:07;33.72;;;22.83;;
36585;SDS011;22591;48.314;11.562;2024-03-08T02:01:33;33.58;;;21.23;;
36585;SDS011;22591;48.314;11.562;2024-03-08T02:04:00;31.52;;;22.02;;
36585;SDS011;22591;48.314;11.562;2024-03-08T02:06:25;33.10;;;22.55;;
36585;SDS011;22591;48.314;11.562;2024-03-08T02:08:51;34.78;;;24.52;;
36585;SDS011;22591;48.314;11.562;2024-03-08T02:11:18;35.30;;;22.98;;
36585;SDS011;22591;48.314;11.562;2024-03-08T02:13:45;33.60;;;23.75;;
36585;SDS011;22591;48.314;11.562;2024-03-08T02:16:11;39.20;;;24.92;;
36585;SDS011;22591;48.314;11.562;2024-03-08T02:18:37;31.60;;;22.80;;
36585;SDS011;22591;48.314;11.562;2024-03-08T02:21:05;34.22;;;23.67;;
36585;SDS011;22591;48.314;11.562;2024-03-08T02:23:32;37.20;;;25.05;;
36585;SDS011;22591;48.314;11.562;2024-03-08T02:25:58;45.22;;;26.10;;
36585;SDS011;22591;48.314;11.562;2024-03-08T02:28:24;42.83;;;26.30;;
36585;SDS011;22591;48.314;11.562;2024-03-08T02:30:54;44.17;;;26.55;;
36585;SDS011;22591;48.314;11.562;2024-03-08T02:33:20;42.58;;;25.95;;
36585;SDS011;22591;48.314;11.562;2024-03-08T02:35:47;40.58;;;26.25;;
36585;SDS011;22591;48.314;11.562;2024-03-08T02:38:14;38.50;;;24.25;;
36585;SDS011;22591;48.314;11.562;2024-03-08T02:40:44;40.60;;;25.60;;
36585;SDS011;22591;48.314;11.562;2024-03-08T02:43:10;43.45;;;25.63;;
36585;SDS011;22591;48.314;11.562;2024-03-08T02:45:37;34.88;;;24.08;;
36585;SDS011;22591;48.314;11.562;2024-03-08T02:48:03;36.22;;;24.55;;
36585;SDS011;22591;48.314;11.562;2024-03-08T02:50:31;37.78;;;25.88;;
36585;SDS011;22591;48.314;11.562;2024-03-08T02:52:57;38.35;;;26.63;;
36585;SDS011;22591;48.314;11.562;2024-03-08T02:55:23;42.00;;;26.45;;
36585;SDS011;22591;48.314;11.562;2024-03-08T02:57:50;45.78;;;25.42;;
36585;SDS011;22591;48.314;11.562;2024-03-08T03:00:17;45.60;;;26.50;;
36585;SDS011;22591;48.314;11.562;2024-03-08T03:02:44;39.58;;;25.70;;
36585;SDS011;22591;48.314;11.562;2024-03-08T03:05:10;43.78;;;27.02;;
36585;SDS011;22591;48.314;11.562;2024-03-08T03:07:37;43.08;;;26.48;;
36585;SDS011;22591;48.314;11.562;2024-03-08T03:10:02;38.78;;;25.23;;
36585;SDS011;22591;48.314;11.562;2024-03-08T03:12:29;39.33;;;25.35;;
36585;SDS011;22591;48.314;11.562;2024-03-08T03:14:56;43.03;;;26.38;;
36585;SDS011;22591;48.314;11.562;2024-03-08T03:17:25;39.10;;;25.25;;
36585;SDS011;22591;48.314;11.562;2024-03-08T03:19:51;38.55;;;25.70;;
36585;SDS011;22591;48.314;11.562;2024-03-08T03:22:18;41.30;;;25.15;;
36585;SDS011;22591;48.314;11.562;2024-03-08T03:24:44;39.10;;;24.95;;
36585;SDS011;22591;48.314;11.562;2024-03-08T03:27:11;37.25;;;24.75;;
36585;SDS011;22591;48.314;11.562;2024-03-08T03:29:46;40.33;;;27.23;;
36585;SDS011;22591;48.314;11.562;2024-03-08T03:32:12;38.90;;;26.55;;
36585;SDS011;22591;48.314;11.562;2024-03-08T03:34:38;41.58;;;25.45;;
36585;SDS011;22591;48.314;11.562;2024-03-08T03:37:08;40.70;;;25.67;;
36585;SDS011;22591;48.314;11.562;2024-03-08T03:39:37;46.22;;;27.95;;
36585;SDS011;22591;48.314;11.562;2024-03-08T03:42:18;42.83;;;25.98;;
36585;SDS011;22591;48.314;11.562;2024-03-08T03:44:45;43.95;;;27.33;;
36585;SDS011;22591;48.314;11.562;2024-03-08T03:47:12;39.30;;;27.13;;
36585;SDS011;22591;48.314;11.562;2024-03-08T03:49:38;41.88;;;27.02;;
36585;SDS011;22591;48.314;11.562;2024-03-08T03:52:04;40.92;;;26.50;;
36585;SDS011;22591;48.314;11.562;2024-03-08T03:54:30;43.83;;;26.98;;
36585;SDS011;22591;48.314;11.562;2024-03-08T03:56:56;43.97;;;27.45;;
36585;SDS011;22591;48.314;11.562;2024-03-08T03:59:22;43.90;;;27.83;;
36585;SDS011;22591;48.314;11.562;2024-03-08T04:01:47;44.45;;;26.83;;
36585;SDS011;22591;48.314;11.562;2024-03-08T04:04:14;44.10;;;27.27;;
36585;SDS011;22591;48.314;11.562;2024-03-08T04:06:40;43.05;;;27.50;;
36585;SDS011;22591;48.314;11.562;2024-03-08T04:09:06;44.25;;;27.25;;
36585;SDS011;22591;48.314;11.562;2024-03-08T04:11:32;44.05;;;28.05;;
36585;SDS011;22591;48.314;11.562;2024-03-08T04:13:57;54.55;;;30.45;;
36585;SDS011;22591;48.314;11.562;2024-03-08T04:16:23;55.13;;;32.38;;
36585;SDS011;22591;48.314;11.562;2024-03-08T04:18:49;53.67;;;32.60;;
36585;SDS011;22591;48.314;11.562;2024-03-08T04:21:15;57.35;;;32.08;;
36585;SDS011;22591;48.314;11.562;2024-03-08T04:23:40;61.30;;;34.65;;
36585;SDS011;22591;48.314;11.562;2024-03-08T04:26:06;53.50;;;31.55;;
36585;SDS011;22591;48.314;11.562;2024-03-08T04:28:33;60.70;;;34.13;;
36585;SDS011;22591;48.314;11.562;2024-03-08T04:30:59;57.78;;;33.58;;
36585;SDS011;22591;48.314;11.562;2024-03-08T04:33:28;62.72;;;35.13;;
36585;SDS011;22591;48.314;11.562;2024-03-08T04:35:53;62.45;;;36.08;;
36585;SDS011;22591;48.314;11.562;2024-03-08T04:38:19;59.28;;;35.08;;
36585;SDS011;22591;48.314;11.562;2024-03-08T04:40:45;62.72;;;33.70;;
36585;SDS011;22591;48.314;11.562;2024-03-08T04:43:10;59.55;;;34.60;;
36585;SDS011;22591;48.314;11.562;2024-03-08T04:45:36;60.63;;;36.45;;
36585;SDS011;22591;48.314;11.562;2024-03-08T04:48:02;56.50;;;31.67;;
36585;SDS011;22591;48.314;11.562;2024-03-08T04:50:28;64.47;;;35.17;;
36585;SDS011;22591;48.314;11.562;2024-03-08T04:52:54;59.90;;;34.35;;
36585;SDS011;22591;48.314;11.562;2024-03-08T04:55:20;67.63;;;36.17;;
36585;SDS011;22591;48.314;11.562;2024-03-08T04:57:46;65.93;;;36.38;;
36585;SDS011;22591;48.314;11.562;2024-03-08T05:00:13;63.80;;;34.65;;
36585;SDS011;22591;48.314;11.562;2024-03-08T05:02:40;72.53;;;37.78;;
36585;SDS011;22591;48.314;11.562;2024-03-08T05:05:06;67.40;;;38.35;;
36585;SDS011;22591;48.314;11.562;2024-03-08T05:07:33;72.40;;;36.58;;
36585;SDS011;22591;48.314;11.562;2024-03-08T05:09:59;66.88;;;36.45;;
36585;SDS011;22591;48.314;11.562;2024-03-08T05:12:24;64.43;;;35.00;;
36585;SDS011;22591;48.314;11.562;2024-03-08T05:14:50;61.33;;;34.80;;
36585;SDS011;22591;48.314;11.562;2024-03-08T05:17:16;72.38;;;38.13;;
36585;SDS011;22591;48.314;11.562;2024-03-08T05:19:42;69.53;;;37.00;;
36585;SDS011;22591;48.314;11.562;2024-03-08T05:22:08;67.03;;;37.63;;
36585;SDS011;22591;48.314;11.562;2024-03-08T05:24:34;72.32;;;39.03;;
36585;SDS011;22591;48.314;11.562;2024-03-08T05:27:00;72.70;;;39.30;;
36585;SDS011;22591;48.314;11.562;2024-03-08T05:29:27;67.03;;;38.33;;
36585;SDS011;22591;48.314;11.562;2024-03-08T05:31:53;74.57;;;39.47;;
36585;SDS011;22591;48.314;11.562;2024-03-08T05:34:19;74.40;;;38.92;;
36585;SDS011;22591;48.314;11.562;2024-03-08T05:36:46;71.85;;;38.40;;
36585;SDS011;22591;48.314;11.562;2024-03-08T05:39:14;77.85;;;40.80;;
36585;SDS011;22591;48.314;11.562;2024-03-08T05:41:41;67.95;;;35.58;;
36585;SDS011;22591;48.314;11.562;2024-03-08T05:44:07;73.75;;;38.15;;
36585;SDS011;22591;48.314;11.562;2024-03-08T05:46:33;77.47;;;39.50;;
36585;SDS011;22591;48.314;11.562;2024-03-08T05:49:00;69.00;;;37.70;;
36585;SDS011;22591;48.314;11.562;2024-03-08T05:51:30;70.68;;;38.58;;
36585;SDS011;22591;48.314;11.562;2024-03-08T05:53:56;71.25;;;39.30;;
36585;SDS011;22591;48.314;11.562;2024-03-08T05:56:23;72.35;;;39.85;;
36585;SDS011;22591;48.314;11.562;2024-03-08T05:58:49;68.53;;;37.33;;
36585;SDS011;22591;48.314;11.562;2024-03-08T06:01:15;67.47;;;37.50;;
36585;SDS011;22591;48.314;11.562;2024-03-08T06:03:41;73.15;;;41.25;;
36585;SDS011;22591;48.314;11.562;2024-03-08T06:06:12;81.47;;;41.42;;
36585;SDS011;22591;48.314;11.562;2024-03-08T06:08:38;72.57;;;40.03;;
36585;SDS011;22591;48.314;11.562;2024-03-08T06:11:03;76.55;;;40.75;;
36585;SDS011;22591;48.314;11.562;2024-03-08T06:13:30;67.93;;;39.15;;
36585;SDS011;22591;48.314;11.562;2024-03-08T06:15:59;70.45;;;37.95;;
36585;SDS011;22591;48.314;11.562;2024-03-08T06:18:26;69.13;;;38.10;;
36585;SDS011;22591;48.314;11.562;2024-03-08T06:20:51;72.05;;;40.63;;
36585;SDS011;22591;48.314;11.562;2024-03-08T06:23:17;70.90;;;39.65;;
36585;SDS011;22591;48.314;11.562;2024-03-08T06:25:44;68.72;;;39.35;;
36585;SDS011;22591;48.314;11.562;2024-03-08T06:28:09;70.03;;;37.78;;
36585;SDS011;22591;48.314;11.562;2024-03-08T06:30:35;71.07;;;37.45;;
36585;SDS011;22591;48.314;11.562;2024-03-08T06:33:01;78.30;;;39.45;;
36585;SDS011;22591;48.314;11.562;2024-03-08T06:35:27;72.82;;;39.78;;
36585;SDS011;22591;48.314;11.562;2024-03-08T06:37:52;66.90;;;38.78;;
36585;SDS011;22591;48.314;11.562;2024-03-08T06:40:18;69.63;;;39.70;;
36585;SDS011;22591;48.314;11.562;2024-03-08T06:42:44;70.80;;;39.47;;
36585;SDS011;22591;48.314;11.562;2024-03-08T06:45:10;70.45;;;40.58;;
36585;SDS011;22591;48.314;11.562;2024-03-08T06:47:37;70.40;;;39.15;;
36585;SDS011;22591;48.314;11.562;2024-03-08T06:50:03;70.72;;;38.50;;
36585;SDS011;22591;48.314;11.562;2024-03-08T06:52:29;66.07;;;38.30;;
36585;SDS011;22591;48.314;11.562;2024-03-08T06:54:54;70.07;;;39.42;;
36585;SDS011;22591;48.314;11.562;2024-03-08T06:57:22;64.18;;;36.70;;
36585;SDS011;22591;48.314;11.562;2024-03-08T06:59:48;72.65;;;38.88;;
36585;SDS011;22591;48.314;11.562;2024-03-08T07:02:14;67.07;;;38.67;;
36585;SDS011;22591;48.314;11.562;2024-03-08T07:04:40;68.68;;;37.03;;
36585;SDS011;22591;48.314;11.562;2024-03-08T07:07:05;69.63;;;39.55;;
36585;SDS011;22591;48.314;11.562;2024-03-08T07:09:34;68.93;;;41.15;;
36585;SDS011;22591;48.314;11.562;2024-03-08T07:12:01;64.68;;;37.63;;
36585;SDS011;22591;48.314;11.562;2024-03-08T07:14:26;65.82;;;38.60;;
36585;SDS011;22591;48.314;11.562;2024-03-08T07:16:52;65.03;;;38.40;;
36585;SDS011;22591;48.314;11.562;2024-03-08T07:19:18;70.85;;;40.40;;
36585;SDS011;22591;48.314;11.562;2024-03-08T07:21:44;63.90;;;37.40;;
36585;SDS011;22591;48.314;11.562;2024-03-08T07:24:10;62.17;;;36.08;;
36585;SDS011;22591;48.314;11.562;2024-03-08T07:26:45;61.25;;;38.88;;
36585;SDS011;22591;48.314;11.562;2024-03-08T07:29:14;64.60;;;37.83;;
36585;SDS011;22591;48.314;11.562;2024-03-08T07:31:42;66.93;;;38.60;;
36585;SDS011;22591;48.314;11.562;2024-03-08T07:34:17;64.05;;;39.17;;
36585;SDS011;22591;48.314;11.562;2024-03-08T07:36:43;67.05;;;38.65;;
36585;SDS011;22591;48.314;11.562;2024-03-08T07:39:10;58.33;;;36.13;;
36585;SDS011;22591;48.314;11.562;2024-03-08T07:41:38;64.93;;;38.50;;
36585;SDS011;22591;48.314;11.562;2024-03-08T07:44:13;59.70;;;35.13;;
36585;SDS011;22591;48.314;11.562;2024-03-08T07:46:39;62.17;;;36.45;;
36585;SDS011;22591;48.314;11.562;2024-03-08T07:49:06;61.92;;;37.30;;
36585;SDS011;22591;48.314;11.562;2024-03-08T07:51:35;59.05;;;36.33;;
36585;SDS011;22591;48.314;11.562;2024-03-08T07:54:02;60.08;;;36.15;;
36585;SDS011;22591;48.314;11.562;2024-03-08T07:56:29;56.63;;;35.17;;
36585;SDS011;22591;48.314;11.562;2024-03-08T07:58:55;57.35;;;37.03;;
36585;SDS011;22591;48.314;11.562;2024-03-08T08:01:21;59.40;;;37.47;;
36585;SDS011;22591;48.314;11.562;2024-03-08T08:03:47;63.70;;;36.83;;
36585;SDS011;22591;48.314;11.562;2024-03-08T08:06:14;57.85;;;36.20;;
36585;SDS011;22591;48.314;11.562;2024-03-08T08:08:43;57.00;;;35.90;;
36585;SDS011;22591;48.314;11.562;2024-03-08T08:11:09;55.15;;;34.20;;
36585;SDS011;22591;48.314;11.562;2024-03-08T08:13:40;53.78;;;33.65;;
36585;SDS011;22591;48.314;11.562;2024-03-08T08:16:08;55.70;;;34.63;;
36585;SDS011;22591;48.314;11.562;2024-03-08T08:18:34;55.80;;;35.78;;
36585;SDS011;22591;48.314;11.562;2024-03-08T08:21:02;54.70;;;35.50;;
36585;SDS011;22591;48.314;11.562;2024-03-08T08:23:31;56.92;;;35.35;;
36585;SDS011;22591;48.314;11.562;2024-03-08T08:25:57;56.88;;;36.15;;
36585;SDS011;22591;48.314;11.562;2024-03-08T08:28:23;54.45;;;34.08;;
36585;SDS011;22591;48.314;11.562;2024-03-08T08:30:49;50.65;;;34.33;;
36585;SDS011;22591;48.314;11.562;2024-03-08T08:33:15;52.85;;;34.22;;
36585;SDS011;22591;48.314;11.562;2024-03-08T08:35:41;53.50;;;33.95;;
36585;SDS011;22591;48.314;11.562;2024-03-08T08:38:07;51.75;;;34.10;;
36585;SDS011;22591;48.314;11.562;2024-03-08T08:40:33;52.25;;;34.08;;
36585;SDS011;22591;48.314;11.562;2024-03-08T08:43:01;51.45;;;32.72;;
36585;SDS011;22591;48.314;11.562;2024-03-08T08:45:29;51.10;;;34.13;;
36585;SDS011;22591;48.314;11.562;2024-03-08T08:47:55;56.75;;;33.17;;
36585;SDS011;22591;48.314;11.562;2024-03-08T08:50:21;50.67;;;32.90;;
36585;SDS011;22591;48.314;11.562;2024-03-08T08:52:51;52.85;;;32.88;;
36585;SDS011;22591;48.314;11.562;2024-03-08T08:55:18;51.67;;;32.17;;
36585;SDS011;22591;48.314;11.562;2024-03-08T08:57:46;49.55;;;33.42;;
36585;SDS011;22591;48.314;11.562;2024-03-08T09:00:12;49.00;;;31.48;;
36585;SDS011;22591;48.314;11.562;2024-03-08T09:02:40;46.47;;;29.75;;
36585;SDS011;22591;48.314;11.562;2024-03-08T09:05:06;46.20;;;31.67;;
36585;SDS011;22591;48.314;11.562;2024-03-08T09:07:36;46.17;;;31.02;;
36585;SDS011;22591;48.314;11.562;2024-03-08T09:10:02;45.08;;;30.70;;
36585;SDS011;22591;48.314;11.562;2024-03-08T09:12:28;48.88;;;32.25;;
36585;SDS011;22591;48.314;11.562;2024-03-08T09:14:54;43.97;;;28.85;;
36585;SDS011;22591;48.314;11.562;2024-03-08T09:17:20;40.83;;;28.48;;
36585;SDS011;22591;48.314;11.562;2024-03-08T09:19:49;43.97;;;30.00;;
36585;SDS011;22591;48.314;11.562;2024-03-08T09:22:15;43.88;;;28.63;;
36585;SDS011;22591;48.314;11.562;2024-03-08T09:24:40;42.83;;;30.25;;
36585;SDS011;22591;48.314;11.562;2024-03-08T09:27:08;43.25;;;27.52;;
36585;SDS011;22591;48.314;11.562;2024-03-08T09:29:34;45.60;;;29.42;;
36585;SDS011;22591;48.314;11.562;2024-03-08T09:32:00;43.42;;;28.65;;
36585;SDS011;22591;48.314;11.562;2024-03-08T09:34:26;43.85;;;28.88;;
36585;SDS011;22591;48.314;11.562;2024-03-08T09:36:52;37.53;;;26.00;;
36585;SDS011;22591;48.314;11.562;2024-03-08T09:39:18;42.67;;;28.10;;
36585;SDS011;22591;48.314;11.562;2024-03-08T09:41:46;42.53;;;27.85;;
36585;SDS011;22591;48.314;11.562;2024-03-08T09:44:17;41.67;;;28.08;;
36585;SDS011;22591;48.314;11.562;2024-03-08T09:46:44;46.40;;;29.58;;
36585;SDS011;22591;48.314;11.562;2024-03-08T09:49:12;40.25;;;28.33;;
36585;SDS011;22591;48.314;11.562;2024-03-08T09:51:38;37.17;;;27.35;;
36585;SDS011;22591;48.314;11.562;2024-03-08T09:54:06;39.63;;;28.88;;
36585;SDS011;22591;48.314;11.562;2024-03-08T09:56:33;38.30;;;27.23;;
36585;SDS011;22591;48.314;11.562;2024-03-08T09:59:01;41.78;;;29.38;;
36585;SDS011;22591;48.314;11.562;2024-03-08T10:01:33;39.08;;;27.45;;
36585;SDS011;22591;48.314;11.562;2024-03-08T10:03:58;42.63;;;28.52;;
36585;SDS011;22591;48.314;11.562;2024-03-08T10:06:24;38.67;;;25.60;;
36585;SDS011;22591;48.314;11.562;2024-03-08T10:08:50;41.38;;;29.10;;
36585;SDS011;22591;48.314;11.562;2024-03-08T10:11:19;37.58;;;27.20;;
36585;SDS011;22591;48.314;11.562;2024-03-08T10:13:45;38.60;;;26.58;;
36585;SDS011;22591;48.314;11.562;2024-03-08T10:16:12;38.50;;;27.20;;
36585;SDS011;22591;48.314;11.562;2024-03-08T10:18:38;38.25;;;27.10;;
36585;SDS011;22591;48.314;11.562;2024-03-08T10:21:07;39.00;;;26.40;;
36585;SDS011;22591;48.314;11.562;2024-03-08T10:23:35;34.78;;;25.85;;
36585;SDS011;22591;48.314;11.562;2024-03-08T10:26:11;32.95;;;26.88;;
36585;SDS011;22591;48.314;11.562;2024-03-08T10:28:44;41.47;;;27.13;;
36585;SDS011;22591;48.314;11.562;2024-03-08T10:31:12;39.38;;;26.33;;
36585;SDS011;22591;48.314;11.562;2024-03-08T10:33:40;36.53;;;25.73;;
36585;SDS011;22591;48.314;11.562;2024-03-08T10:36:09;35.60;;;25.08;;
36585;SDS011;22591;48.314;11.562;2024-03-08T10:38:38;36.13;;;24.63;;
36585;SDS011;22591;48.314;11.562;2024-03-08T10:41:08;33.25;;;25.42;;
36585;SDS011;22591;48.314;11.562;2024-03-08T10:43:46;36.38;;;25.65;;
36585;SDS011;22591;48.314;11.562;2024-03-08T10:49:20;34.75;;;24.67;;
36585;SDS011;22591;48.314;11.562;2024-03-08T10:51:56;32.15;;;23.98;;
36585;SDS011;22591;48.314;11.562;2024-03-08T10:54:23;31.13;;;23.98;;
36585;SDS011;22591;48.314;11.562;2024-03-08T10:56:51;32.20;;;24.02;;
36585;SDS011;22591;48.314;11.562;2024-03-08T10:59:17;33.38;;;23.48;;
36585;SDS011;22591;48.314;11.562;2024-03-08T11:01:44;29.45;;;22.20;;
36585;SDS011;22591;48.314;11.562;2024-03-08T11:04:10;34.85;;;22.75;;
36585;SDS011;22591;48.314;11.562;2024-03-08T11:09:27;27.40;;;21.15;;
36585;SDS011;22591;48.314;11.562;2024-03-08T11:12:39;28.67;;;20.60;;
36585;SDS011;22591;48.314;11.562;2024-03-08T11:14:49;30.55;;;21.58;;
36585;SDS011;22591;48.314;11.562;2024-03-08T11:17:16;32.08;;;21.92;;
36585;SDS011;22591;48.314;11.562;2024-03-08T11:20:04;26.23;;;20.10;;
36585;SDS011;22591;48.314;11.562;2024-03-08T11:22:40;25.67;;;19.55;;
36585;SDS011;22591;48.314;11.562;2024-03-08T11:28:10;28.77;;;20.52;;
36585;SDS011;22591;48.314;11.562;2024-03-08T11:33:24;25.75;;;20.58;;
36585;SDS011;22591;48.314;11.562;2024-03-08T11:36:41;30.13;;;20.67;;
36585;SDS011;22591;48.314;11.562;2024-03-08T11:38:47;26.83;;;19.08;;
36585;SDS011;22591;48.314;11.562;2024-03-08T11:41:16;30.13;;;19.23;;
36585;SDS011;22591;48.314;11.562;2024-03-08T11:43:44;22.67;;;17.87;;
36585;SDS011;22591;48.314;11.562;2024-03-08T11:46:11;29.10;;;17.70;;
36585;SDS011;22591;48.314;11.562;2024-03-08T11:48:38;24.30;;;18.23;;
36585;SDS011;22591;48.314;11.562;2024-03-08T11:51:06;23.25;;;17.48;;
36585;SDS011;22591;48.314;11.562;2024-03-08T11:53:33;20.10;;;16.30;;
36585;SDS011;22591;48.314;11.562;2024-03-08T11:56:08;24.08;;;17.38;;
36585;SDS011;22591;48.314;11.562;2024-03-08T11:58:38;29.73;;;18.75;;
36585;SDS011;22591;48.314;11.562;2024-03-08T12:01:05;22.58;;;18.10;;
36585;SDS011;22591;48.314;11.562;2024-03-08T12:03:32;19.30;;;14.75;;
36585;SDS011;22591;48.314;11.562;2024-03-08T12:05:59;16.70;;;13.68;;
36585;SDS011;22591;48.314;11.562;2024-03-08T12:08:25;20.40;;;15.23;;
36585;SDS011;22591;48.314;11.562;2024-03-08T12:10:54;20.02;;;15.18;;
36585;SDS011;22591;48.314;11.562;2024-03-08T12:13:27;22.33;;;16.02;;
36585;SDS011;22591;48.314;11.562;2024-03-08T12:16:02;17.57;;;14.93;;
36585;SDS011;22591;48.314;11.562;2024-03-08T12:18:33;20.83;;;15.85;;
36585;SDS011;22591;48.314;11.562;2024-03-08T12:21:06;19.23;;;15.63;;
36585;SDS011;22591;48.314;11.562;2024-03-08T12:23:36;19.65;;;13.95;;
36585;SDS011;22591;48.314;11.562;2024-03-08T12:26:36;18.73;;;14.52;;
36585;SDS011;22591;48.314;11.562;2024-03-08T12:29:13;15.45;;;12.80;;
36585;SDS011;22591;48.314;11.562;2024-03-08T12:31:43;17.85;;;14.40;;
36585;SDS011;22591;48.314;11.562;2024-03-08T12:34:09;15.35;;;13.70;;
36585;SDS011;22591;48.314;11.562;2024-03-08T12:36:35;14.32;;;12.48;;
36585;SDS011;22591;48.314;11.562;2024-03-08T12:39:05;15.98;;;13.43;;
36585;SDS011;22591;48.314;11.562;2024-03-08T12:41:39;13.88;;;12.38;;
36585;SDS011;22591;48.314;11.562;2024-03-08T12:44:06;15.35;;;13.77;;
36585;SDS011;22591;48.314;11.562;2024-03-08T12:46:36;14.38;;;12.75;;
36585;SDS011;22591;48.314;11.562;2024-03-08T12:49:05;13.73;;;12.18;;
36585;SDS011;22591;48.314;11.562;2024-03-08T12:51:35;12.50;;;11.25;;
36585;SDS011;22591;48.314;11.562;2024-03-08T12:54:02;15.00;;;12.48;;
36585;SDS011;22591;48.314;11.562;2024-03-08T12:56:28;32.20;;;11.45;;
36585;SDS011;22591;48.314;11.562;2024-03-08T12:58:59;14.27;;;11.80;;
36585;SDS011;22591;48.314;11.562;2024-03-08T13:01:25;13.32;;;11.30;;
36585;SDS011;22591;48.314;11.562;2024-03-08T13:03:52;13.13;;;11.45;;
36585;SDS011;22591;48.314;11.562;2024-03-08T13:06:18;13.30;;;11.65;;
36585;SDS011;22591;48.314;11.562;2024-03-08T13:08:46;13.90;;;10.63;;
36585;SDS011;22591;48.314;11.562;2024-03-08T13:11:13;14.20;;;11.40;;
36585;SDS011;22591;48.314;11.562;2024-03-08T13:13:41;14.73;;;12.63;;
36585;SDS011;22591;48.314;11.562;2024-03-08T13:16:08;17.67;;;13.15;;
36585;SDS011;22591;48.314;11.562;2024-03-08T13:18:34;14.30;;;12.88;;
36585;SDS011;22591;48.314;11.562;2024-03-08T13:21:00;11.55;;;10.40;;
36585;SDS011;22591;48.314;11.562;2024-03-08T13:23:36;13.63;;;11.95;;
36585;SDS011;22591;48.314;11.562;2024-03-08T13:26:04;14.40;;;12.90;;
36585;SDS011;22591;48.314;11.562;2024-03-08T13:28:34;17.63;;;12.77;;
36585;SDS011;22591;48.314;11.562;2024-03-08T13:31:04;14.73;;;13.07;;
36585;SDS011;22591;48.314;11.562;2024-03-08T13:33:35;14.40;;;11.75;;
36585;SDS011;22591;48.314;11.562;2024-03-08T13:36:02;14.13;;;12.15;;
36585;SDS011;22591;48.314;11.562;2024-03-08T13:38:31;14.93;;;12.45;;
36585;SDS011;22591;48.314;11.562;2024-03-08T13:41:01;13.43;;;12.10;;
36585;SDS011;22591;48.314;11.562;2024-03-08T13:43:27;16.23;;;13.02;;
36585;SDS011;22591;48.314;11.562;2024-03-08T13:45:53;14.77;;;13.32;;
36585;SDS011;22591;48.314;11.562;2024-03-08T13:48:19;15.10;;;13.50;;
36585;SDS011;22591;48.314;11.562;2024-03-08T13:50:47;14.20;;;12.70;;
36585;SDS011;22591;48.314;11.562;2024-03-08T13:53:13;13.35;;;11.95;;
36585;SDS011;22591;48.314;11.562;2024-03-08T13:55:40;13.13;;;11.80;;
36585;SDS011;22591;48.314;11.562;2024-03-08T13:58:05;15.32;;;12.60;;
36585;SDS011;22591;48.314;11.562;2024-03-08T14:00:34;17.42;;;14.10;;
36585;SDS011;22591;48.314;11.562;2024-03-08T14:03:01;14.45;;;12.85;;
36585;SDS011;22591;48.314;11.562;2024-03-08T14:05:30;14.85;;;13.27;;
36585;SDS011;22591;48.314;11.562;2024-03-08T14:07:59;16.73;;;12.95;;
36585;SDS011;22591;48.314;11.562;2024-03-08T14:10:28;15.15;;;13.45;;
36585;SDS011;22591;48.314;11.562;2024-03-08T14:12:56;13.52;;;11.88;;
36585;SDS011;22591;48.314;11.562;2024-03-08T14:15:22;16.17;;;12.50;;
36585;SDS011;22591;48.314;11.562;2024-03-08T14:17:57;15.15;;;13.52;;
36585;SDS011;22591;48.314;11.562;2024-03-08T14:20:23;15.23;;;12.77;;
36585;SDS011;22591;48.314;11.562;2024-03-08T14:22:50;13.70;;;12.30;;